Time;durP1;ratioP1;P1;durP2;ratioP2;P2;SDS_P1;SDS_P2;PMS_P1;PMS_P2;Temp;Humidity;BMP_temperature;BMP_pressure;BME280_temperature;BME280_humidity;BME280_pressure;Samples;Min_cycle;Max_cycle;Signal;HPM_P1;HPM_P2
2022/03/31 00:01:16;;;;;;;6.60;3.88;;;-1.60;1.00;;;-2.13;100.00;98242.34;5061703;27;129840;-67
2022/03/31 00:03:45;;;;;;;6.82;3.58;;;-1.70;1.00;;;-2.14;100.00;98242.59;5061805;27;129593;-67
2022/03/31 00:06:13;;;;;;;10.90;3.88;;;-1.70;1.00;;;-2.11;100.00;98239.41;5041502;27;118442;-69
2022/03/31 00:08:42;;;;;;;6.72;3.90;;;-1.70;1.00;;;-2.19;100.00;98236.19;5082850;27;116199;-68
2022/03/31 00:11:11;;;;;;;6.55;3.85;;;-1.70;1.00;;;-2.10;100.00;98228.53;5066990;27;129745;-68
2022/03/31 00:13:42;;;;;;;6.40;3.83;;;-1.60;1.00;;;-2.04;100.00;98231.97;5081939;27;129285;-68
2022/03/31 00:16:10;;;;;;;6.43;3.75;;;-1.60;1.00;;;-2.07;100.00;98229.84;5082497;27;118898;-70
2022/03/31 00:18:39;;;;;;;6.20;3.83;;;-1.60;1.00;;;-2.15;100.00;98231.16;5084745;27;115690;-68
2022/03/31 00:21:08;;;;;;;6.78;3.90;;;-1.70;1.00;;;-2.13;100.00;98228.25;5082031;27;130007;-68
2022/03/31 00:23:37;;;;;;;7.35;4.03;;;-1.70;1.00;;;-2.18;100.00;98229.81;5049845;27;129944;-68
2022/03/31 00:26:05;;;;;;;7.10;4.07;;;-1.70;1.00;;;-2.17;100.00;98223.44;5084358;27;118444;-68
2022/03/31 00:28:34;;;;;;;6.22;4.07;;;-1.70;1.00;;;-2.13;100.00;98225.59;5082239;27;115171;-69
2022/03/31 00:31:04;;;;;;;5.38;3.95;;;-1.70;1.00;;;-2.25;100.00;98226.59;5066708;27;129609;-70
2022/03/31 00:33:33;;;;;;;8.95;5.35;;;-1.80;1.00;;;-2.20;100.00;98231.13;5063565;27;131566;-71
2022/03/31 00:36:02;;;;;;;7.40;4.43;;;-1.80;1.00;;;-2.26;100.00;98229.50;5050134;27;118876;-69
2022/03/31 00:38:31;;;;;;;7.20;4.03;;;-1.80;1.00;;;-2.32;100.00;98219.91;5082196;27;115451;-70
2022/03/31 00:40:59;;;;;;;7.00;4.25;;;-1.80;1.00;;;-2.32;100.00;98220.72;5065292;27;129257;-69
2022/03/31 00:43:28;;;;;;;6.75;4.07;;;-1.80;1.00;;;-2.35;100.00;98222.03;5081533;27;129810;-70
2022/03/31 00:45:58;;;;;;;8.07;4.32;;;-1.80;1.00;;;-2.32;100.00;98225.22;5067136;27;118350;-69
2022/03/31 00:48:29;;;;;;;7.55;4.60;;;-1.80;1.00;;;-2.35;100.00;98215.91;5033259;27;113937;-70
2022/03/31 00:50:57;;;;;;;6.90;4.38;;;-1.80;1.00;;;-2.43;100.00;98211.06;5081775;27;130320;-69
2022/03/31 00:53:26;;;;;;;6.18;3.80;;;-1.90;1.00;;;-2.46;100.00;98208.94;5080450;27;129989;-69
2022/03/31 00:55:55;;;;;;;6.47;3.83;;;-1.90;1.00;;;-2.40;100.00;98213.22;5081912;27;119228;-69
2022/03/31 00:58:25;;;;;;;8.50;4.90;;;-1.90;1.00;;;-2.31;100.00;98211.66;5082386;27;114817;-68
2022/03/31 01:00:54;;;;;;;7.95;4.22;;;-1.80;1.00;;;-2.27;100.00;98218.06;5081233;27;130002;-69
2022/03/31 01:03:22;;;;;;;7.75;4.03;;;-1.80;1.00;;;-2.27;100.00;98212.75;5081435;27;129908;-68
2022/03/31 01:05:53;;;;;;;6.90;3.78;;;-1.80;1.00;;;-2.34;100.00;98217.50;5081498;27;118989;-68
2022/03/31 01:08:21;;;;;;;7.07;4.53;;;-1.80;1.00;;;-2.29;100.00;98220.19;5066817;27;115774;-68
2022/03/31 01:10:52;;;;;;;7.88;4.07;;;-1.80;1.00;;;-2.29;100.00;98230.84;5066054;27;129367;-69
2022/03/31 01:13:21;;;;;;;7.65;4.65;;;-1.80;1.00;;;-2.28;100.00;98227.09;5081243;27;130221;-69
2022/03/31 01:15:50;;;;;;;7.63;4.47;;;-1.80;1.00;;;-2.27;100.00;98233.22;5063220;27;119109;-69
2022/03/31 01:18:19;;;;;;;9.63;5.45;;;-1.80;1.00;;;-2.20;100.00;98229.28;5083434;27;114887;-68
2022/03/31 01:20:48;;;;;;;7.88;4.70;;;-1.80;1.00;;;-2.21;100.00;98240.97;5066251;27;129565;-69
2022/03/31 01:23:17;;;;;;;7.95;4.30;;;-1.80;1.00;;;-2.28;100.00;98234.28;5066107;27;129473;-68
2022/03/31 01:25:46;;;;;;;7.68;4.55;;;-1.80;1.00;;;-2.35;100.00;98234.53;5081643;27;118934;-68
2022/03/31 01:28:15;;;;;;;8.25;4.82;;;-1.80;1.00;;;-2.40;100.00;98237.94;5049558;27;115134;-69
2022/03/31 01:30:43;;;;;;;7.43;4.90;;;-1.90;1.00;;;-2.37;100.00;98244.59;5082788;27;129002;-67
2022/03/31 01:33:14;;;;;;;7.28;4.45;;;-1.90;1.00;;;-2.41;100.00;98238.22;5083030;27;129506;-70
2022/03/31 01:35:43;;;;;;;8.13;4.57;;;-1.90;1.00;;;-2.39;100.00;98236.88;5081238;27;118931;-69
2022/03/31 01:38:11;;;;;;;7.15;4.38;;;-1.90;1.00;;;-2.33;100.00;98244.91;5081394;27;115174;-69
2022/03/31 01:40:42;;;;;;;9.63;5.00;;;-1.90;1.00;;;-2.35;100.00;98245.94;5082489;27;131679;-70
2022/03/31 01:43:11;;;;;;;7.75;4.70;;;-1.90;1.00;;;-2.33;100.00;98240.38;5080477;27;129534;-70
2022/03/31 01:45:40;;;;;;;8.23;5.22;;;-1.80;1.00;;;-2.35;100.00;98237.19;5081456;27;118819;-69
2022/03/31 01:48:09;;;;;;;6.95;4.53;;;-1.90;1.00;;;-2.33;100.00;98242.25;5084619;27;115073;-70
2022/03/31 01:50:37;;;;;;;8.77;4.65;;;-1.80;1.00;;;-2.33;100.00;98248.34;5065804;27;129469;-69
2022/03/31 01:53:06;;;;;;;10.35;4.93;;;-1.80;1.00;;;-2.37;100.00;98255.22;5084501;27;130348;-68
2022/03/31 01:55:34;;;;;;;9.43;4.85;;;-1.90;1.00;;;-2.31;100.00;98259.50;5052447;27;117665;-70
2022/03/31 01:58:04;;;;;;;6.28;3.85;;;-1.90;1.00;;;-2.27;100.00;98255.28;5084848;27;115721;-69
2022/03/31 02:00:33;;;;;;;8.43;5.30;;;-1.80;1.00;;;-2.24;100.00;98254.78;5084333;27;130493;-69
2022/03/31 02:03:02;;;;;;;8.23;4.30;;;-1.80;1.00;;;-2.26;100.00;98262.22;5068686;27;129463;-69
2022/03/31 02:05:31;;;;;;;7.85;4.63;;;-1.90;1.00;;;-2.30;100.00;98265.63;5066453;27;118813;-69
2022/03/31 02:07:59;;;;;;;9.48;5.63;;;-1.80;1.00;;;-2.32;100.00;98257.94;5066151;27;115020;-68
2022/03/31 02:10:28;;;;;;;8.82;4.70;;;-1.90;1.00;;;-2.35;100.00;98263.75;5069131;27;130056;-69
2022/03/31 02:12:57;;;;;;;8.05;5.00;;;-1.90;1.00;;;-2.31;100.00;98264.03;5086288;27;129388;-69
2022/03/31 02:15:29;;;;;;;7.97;5.13;;;-1.90;1.00;;;-2.28;100.00;98259.00;5069384;27;117653;-68
2022/03/31 02:17:57;;;;;;;7.88;5.05;;;-1.90;1.00;;;-2.32;100.00;98263.25;5067351;27;115338;-68
2022/03/31 02:20:27;;;;;;;9.20;5.00;;;-1.80;1.00;;;-2.32;100.00;98263.25;5083693;27;129762;-68
2022/03/31 02:22:56;;;;;;;7.43;4.43;;;-1.80;1.00;;;-2.33;100.00;98274.91;5083865;27;129545;-69
2022/03/31 02:25:25;;;;;;;10.38;4.75;;;-1.90;1.00;;;-2.40;100.00;98269.00;5084301;27;119162;-68
2022/03/31 02:27:55;;;;;;;9.52;5.38;;;-1.90;1.00;;;-2.36;100.00;98273.56;5086222;27;114532;-68
2022/03/31 02:30:27;;;;;;;8.55;4.93;;;-1.90;1.00;;;-2.36;100.00;98272.78;5068472;27;129606;-68
2022/03/31 02:32:55;;;;;;;8.25;5.20;;;-1.90;1.00;;;-2.38;100.00;98267.72;5083578;27;129381;-67
2022/03/31 02:35:24;;;;;;;11.77;5.70;;;-1.90;1.00;;;-2.33;100.00;98269.59;5068902;27;118247;-68
2022/03/31 02:37:53;;;;;;;8.40;5.35;;;-1.90;1.00;;;-2.37;100.00;98265.84;5084023;27;115200;-67
2022/03/31 02:40:22;;;;;;;8.05;4.93;;;-1.90;1.00;;;-2.34;100.00;98268.00;5086201;27;129996;-67
2022/03/31 02:42:50;;;;;;;8.52;5.07;;;-1.90;1.00;;;-2.31;100.00;98267.47;5083410;27;130875;-67
2022/03/31 02:45:19;;;;;;;9.27;5.05;;;-1.80;1.00;;;-2.32;100.00;98263.25;5083834;27;118610;-68
2022/03/31 02:47:49;;;;;;;7.97;4.75;;;-1.90;1.00;;;-2.30;100.00;98266.44;5068939;27;115928;-67
2022/03/31 02:50:20;;;;;;;7.18;4.32;;;-1.80;1.00;;;-2.36;100.00;98272.78;5083386;27;130318;-68
2022/03/31 02:55:34;;;;;;;7.22;4.60;;;-1.90;1.00;;;-2.37;100.00;98271.16;5083843;27;118977;-67
2022/03/31 02:58:06;;;;;;;7.20;4.45;;;-1.90;1.00;;;-2.29;100.00;98273.34;5068643;27;114452;-69
2022/03/31 03:00:37;;;;;;;8.45;5.13;;;-1.80;1.00;;;-2.32;100.00;98265.91;5083017;27;130534;-67
2022/03/31 03:03:08;;;;;;;9.25;5.20;;;-1.90;1.00;;;-2.34;100.00;98268.00;5085175;27;130297;-68
2022/03/31 03:05:36;;;;;;;7.55;4.35;;;-1.80;1.00;;;-2.36;100.00;98262.13;5068428;27;118886;-67
2022/03/31 03:08:06;;;;;;;7.40;4.35;;;-1.90;1.00;;;-2.39;100.00;98270.63;5083875;27;115543;-67
2022/03/31 03:10:34;;;;;;;10.65;4.82;;;-1.90;1.00;;;-2.44;100.00;98266.09;5082946;27;130121;-69
2022/03/31 03:13:03;;;;;;;8.07;4.90;;;-2.00;1.00;;;-2.44;100.00;98275.91;5067769;27;128410;-68
2022/03/31 03:15:31;;;;;;;9.10;5.18;;;-1.90;1.00;;;-2.44;100.00;98260.75;5083523;27;118465;-68
2022/03/31 03:17:59;;;;;;;9.82;5.15;;;-1.90;1.00;;;-2.44;100.00;98259.97;5084405;27;115046;-68
2022/03/31 03:20:30;;;;;;;7.65;4.95;;;-1.90;1.00;;;-2.47;100.00;98249.88;5067448;27;131669;-69
2022/03/31 03:22:59;;;;;;;7.85;4.80;;;-1.90;1.00;;;-2.46;100.00;98256.75;5082926;27;129352;-68
2022/03/31 03:25:27;;;;;;;7.78;4.50;;;-2.00;1.00;;;-2.46;100.00;98252.25;5081984;27;119685;-69
2022/03/31 03:27:57;;;;;;;7.85;4.65;;;-2.00;1.00;;;-2.47;100.00;98244.53;5082421;27;119365;-72
2022/03/31 03:30:25;;;;;;;7.90;4.55;;;-2.00;1.00;;;-2.49;100.00;98251.94;5081316;27;129720;-68
2022/03/31 03:32:54;;;;;;;8.18;4.57;;;-2.00;1.00;;;-2.51;100.00;98248.75;5048973;27;129205;-68
2022/03/31 03:35:23;;;;;;;8.05;4.10;;;-2.00;1.00;;;-2.55;100.00;98251.13;5047242;27;121526;-66
2022/03/31 03:37:52;;;;;;;7.65;4.22;;;-2.00;1.00;;;-2.55;100.00;98236.00;5063174;27;122807;-68
2022/03/31 03:40:21;;;;;;;7.57;4.43;;;-2.00;1.00;;;-2.56;100.00;98247.66;5081756;27;130495;-67
2022/03/31 03:42:49;;;;;;;8.88;5.05;;;-2.10;1.00;;;-2.59;100.00;98247.38;5081639;27;130826;-66
2022/03/31 03:45:18;;;;;;;8.20;5.00;;;-2.10;1.00;;;-2.65;100.00;98241.25;5081520;27;119754;-64
2022/03/31 03:47:48;;;;;;;6.38;4.00;;;-2.10;1.00;;;-2.61;100.00;98242.31;5081359;27;119437;-66
2022/03/31 03:50:17;;;;;;;6.80;4.32;;;-2.10;1.00;;;-2.72;100.00;98232.69;5078236;27;130295;-65
2022/03/31 03:52:46;;;;;;;7.95;4.38;;;-2.10;1.00;;;-2.74;100.00;98253.41;5078763;27;130534;-67
2022/03/31 03:55:16;;;;;;;6.95;4.38;;;-2.20;1.00;;;-2.72;100.00;98248.63;5060427;27;119628;-65
2022/03/31 03:57:45;;;;;;;7.25;4.40;;;-2.20;1.00;;;-2.65;100.00;98240.44;5060752;27;119032;-65
2022/03/31 04:00:15;;;;;;;6.38;4.05;;;-2.10;1.00;;;-2.55;100.00;98249.28;5059114;27;130500;-67
2022/03/31 04:02:44;;;;;;;6.68;4.03;;;-2.10;1.00;;;-2.53;100.00;98247.16;5044704;27;128453;-67
2022/03/31 04:05:13;;;;;;;7.63;4.43;;;-2.10;1.00;;;-2.55;100.00;98249.28;5059181;27;120249;-67
2022/03/31 04:07:42;;;;;;;7.13;4.18;;;-2.10;1.00;;;-2.44;100.00;98254.66;5060743;27;119807;-66
2022/03/31 04:10:11;;;;;;;6.63;3.80;;;-1.90;1.00;;;-2.45;100.00;98258.38;5045148;27;128594;-65
2022/03/31 04:12:42;;;;;;;6.28;4.10;;;-2.00;1.00;;;-2.41;100.00;98260.25;5059861;27;129585;-66
2022/03/31 04:15:13;;;;;;;8.77;3.97;;;-2.00;1.00;;;-2.25;100.00;98258.47;5059594;27;119975;-66
2022/03/31 04:17:43;;;;;;;6.55;3.72;;;-2.00;1.00;;;-2.20;100.00;98266.50;5061005;27;119301;-65
2022/03/31 04:20:13;;;;;;;6.63;3.90;;;-1.90;1.00;;;-2.17;100.00;98267.81;5060016;27;130626;-65
2022/03/31 04:22:42;;;;;;;5.88;3.60;;;-1.90;1.00;;;-2.10;100.00;98270.25;5041515;27;129548;-65
2022/03/31 04:25:13;;;;;;;8.23;4.07;;;-1.80;1.00;;;-2.09;100.00;98269.19;5040416;27;122001;-65
2022/03/31 04:27:43;;;;;;;6.22;3.75;;;-1.80;1.00;;;-2.02;100.00;98267.09;5058675;27;121666;-65
2022/03/31 04:30:17;;;;;;;6.72;3.67;;;-1.80;1.00;;;-1.99;100.00;98278.03;5044712;27;129596;-66
2022/03/31 04:32:46;;;;;;;7.55;3.88;;;-1.80;1.00;;;-1.90;99.75;98273.00;5059630;27;129488;-66
2022/03/31 04:35:15;;;;;;;5.70;3.60;;;-1.70;1.00;;;-1.83;99.63;98276.22;5059795;27;119468;-65
2022/03/31 04:37:43;;;;;;;6.18;3.72;;;-1.70;1.00;;;-1.74;99.19;98279.19;5060035;27;119560;-66
2022/03/31 04:40:14;;;;;;;5.82;3.40;;;-1.60;1.00;;;-1.71;98.46;98278.66;5063040;27;129675;-67
2022/03/31 04:42:44;;;;;;;5.32;3.22;;;-1.60;1.00;;;-1.90;97.63;98275.66;5059979;27;129865;-67
2022/03/31 04:45:12;;;;;;;6.28;3.42;;;-1.70;1.00;;;-1.89;97.38;98277.25;5059856;27;119344;-67
2022/03/31 04:47:41;;;;;;;6.03;3.28;;;-1.80;1.00;;;-1.69;96.75;98281.84;5060070;27;119499;-65
2022/03/31 04:50:11;;;;;;;5.80;3.40;;;-1.80;1.00;;;-2.38;97.57;98280.22;5043198;27;129806;-68
2022/03/31 04:52:39;;;;;;;6.90;3.30;;;-2.00;1.00;;;-2.33;98.63;98282.88;5059659;27;129998;-67
2022/03/31 04:55:09;;;;;;;5.95;3.42;;;-2.00;1.00;;;-2.11;98.19;98279.28;5059906;27;119586;-69
2022/03/31 04:57:38;;;;;;;6.97;3.35;;;-1.90;1.00;;;-1.75;96.50;98279.44;5044811;27;118989;-67
2022/03/31 05:00:10;;;;;;;5.20;3.30;;;-1.80;1.00;;;-1.50;95.40;98274.19;5062304;27;131565;-67
2022/03/31 05:02:39;;;;;;;5.10;2.70;;;-1.60;1.00;;;-1.68;95.22;98280.00;5058449;27;129679;-69
2022/03/31 05:05:08;;;;;;;5.47;3.28;;;-1.70;1.00;;;-1.54;94.28;98285.63;5044738;27;119512;-68
2022/03/31 05:07:37;;;;;;;5.32;3.00;;;-1.70;1.00;;;-1.58;94.46;98281.91;5042010;27;120237;-68
2022/03/31 05:10:07;;;;;;;5.97;3.25;;;-1.70;1.00;;;-1.66;94.12;98280.53;5059006;27;129984;-68
2022/03/31 05:12:36;;;;;;;5.18;3.20;;;-1.60;1.00;;;-1.43;93.11;98283.78;5059060;27;129988;-69
2022/03/31 05:15:04;;;;;;;6.38;3.28;;;-1.60;1.00;;;-1.10;92.00;98287.84;5043323;27;120945;-69
2022/03/31 05:17:35;;;;;;;8.32;2.97;;;-1.50;1.00;;;-0.99;91.15;98283.34;5044014;27;121022;-68
2022/03/31 05:20:10;;;;;;;4.68;2.72;;;-1.40;1.00;;;-1.06;90.48;98288.13;5041114;27;130533;-68
2022/03/31 05:22:39;;;;;;;5.90;3.08;;;-1.40;1.00;;;-0.88;90.21;98290.28;5041043;27;129572;-64
2022/03/31 05:25:11;;;;;;;5.53;3.17;;;-1.30;1.00;;;-1.04;89.67;98286.81;5059106;27;119770;-64
2022/03/31 05:27:46;;;;;;;4.88;2.70;;;-1.30;1.00;;;-0.63;88.94;98283.34;5059077;27;119881;-65
2022/03/31 05:30:18;;;;;;;4.90;3.20;;;-1.20;1.00;;;-0.90;88.28;98287.09;5044242;27;129718;-65
2022/03/31 05:32:51;;;;;;;5.22;3.08;;;-1.20;1.00;;;-0.65;87.96;98288.16;5044553;27;128487;-67
2022/03/31 05:35:21;;;;;;;5.28;2.88;;;-1.20;1.00;;;-0.83;88.02;98292.94;5044567;27;119084;-65
2022/03/31 05:37:51;;;;;;;4.85;3.00;;;-1.20;1.00;;;-0.66;87.62;98282.00;5044202;27;117969;-66
2022/03/31 05:40:19;;;;;;;6.03;3.22;;;-1.20;1.00;;;-0.25;86.42;98281.16;5042279;27;129452;-65
2022/03/31 05:42:48;;;;;;;6.50;3.25;;;-1.00;1.00;;;-0.45;85.37;98277.47;5057721;27;130136;-64
2022/03/31 05:45:17;;;;;;;4.63;2.80;;;-1.10;1.00;;;-0.75;87.14;98284.44;5058876;27;119684;-66
2022/03/31 05:47:48;;;;;;;4.35;2.65;;;-1.10;1.00;;;-0.05;85.34;98283.78;5062002;27;119350;-64
2022/03/31 05:50:16;;;;;;;5.05;2.80;;;-0.90;1.00;;;-0.56;85.29;98281.22;5058531;27;131154;-65
2022/03/31 05:52:45;;;;;;;5.05;3.00;;;-0.90;1.00;;;-0.33;85.47;98289.72;5058739;27;129540;-65
2022/03/31 05:55:18;;;;;;;6.10;2.78;;;-0.90;1.00;;;-0.15;84.34;98291.81;5059534;27;119570;-65
2022/03/31 05:57:48;;;;;;;6.68;3.08;;;-0.80;1.00;;;0.48;82.76;98293.16;5027561;27;118384;-65
2022/03/31 06:00:20;;;;;;;5.15;2.72;;;-0.50;1.00;;;-0.01;82.79;98297.38;5043492;27;130161;-65
2022/03/31 06:02:50;;;;;;;4.65;2.70;;;-0.70;1.00;;;-0.21;84.09;98290.22;5059230;27;130198;-65
2022/03/31 06:05:20;;;;;;;5.05;2.80;;;-0.70;1.00;;;-0.05;83.61;98302.47;5042600;27;121616;-64
2022/03/31 06:07:51;;;;;;;6.47;3.13;;;-0.70;1.00;;;0.17;83.14;98294.13;5044095;27;121493;-68
2022/03/31 06:10:20;;;;;;;7.00;3.85;;;-0.60;1.00;;;-0.20;83.53;98299.81;5058156;27;129846;-65
2022/03/31 06:12:48;;;;;;;6.43;3.60;;;-0.60;1.00;;;-0.05;83.56;98302.47;5058265;27;130590;-66
2022/03/31 06:15:17;;;;;;;12.50;7.00;;;-0.60;1.00;;;0.00;83.27;98296.31;5043954;27;119019;-64
2022/03/31 06:17:47;;;;;;;7.38;3.28;;;-0.60;1.00;;;0.54;81.92;98308.09;5043510;27;119320;-66
2022/03/31 06:20:18;;;;;;;7.40;4.10;;;-0.40;1.00;;;0.42;81.17;98310.28;5043334;27;130353;-65
2022/03/31 06:22:46;;;;;;;7.13;4.88;;;-0.40;1.00;;;0.57;80.51;98312.09;5058920;27;130135;-65
2022/03/31 06:25:16;;;;;;;4.90;2.90;;;-0.30;1.00;;;1.05;79.76;98307.78;5058895;27;120695;-65
2022/03/31 06:27:47;;;;;;;4.22;2.30;;;-0.10;1.00;;;1.19;78.24;98296.50;5043556;27;119290;-66
2022/03/31 06:30:16;;;;;;;6.40;2.85;;;0.00;1.00;;;0.87;78.52;98301.25;5057114;27;130291;-63
2022/03/31 06:32:45;;;;;;;6.00;3.08;;;-0.10;1.00;;;0.42;79.92;98312.94;5026484;27;129126;-64
2022/03/31 06:35:16;;;;;;;7.30;3.30;;;-0.20;1.00;;;0.03;80.19;98303.75;5058857;27;119176;-64
2022/03/31 06:37:44;;;;;;;5.57;2.95;;;-0.50;1.00;;;-0.08;81.04;98308.34;5041595;27;119004;-65
2022/03/31 06:40:15;;;;;;;4.78;2.40;;;-0.50;1.00;;;-0.12;81.66;98307.28;5073177;27;129838;-66
2022/03/31 06:42:45;;;;;;;29.35;15.82;;;-0.60;1.00;;;0.25;80.97;98295.41;5065342;27;129137;-65
2022/03/31 06:45:16;;;;;;;56.22;29.67;;;-0.40;1.00;;;1.06;78.53;98308.59;5059842;27;120130;-65
2022/03/31 06:47:46;;;;;;;62.22;29.95;;;-0.20;1.00;;;0.62;77.97;98320.88;5062177;27;119550;-63
2022/03/31 06:50:17;;;;;;;42.20;23.63;;;-0.30;1.00;;;0.64;78.66;98307.25;5061755;27;129814;-65
2022/03/31 06:52:45;;;;;;;11.85;7.07;;;-0.30;1.00;;;0.98;77.58;98307.31;5062019;27;129826;-66
2022/03/31 06:55:13;;;;;;;7.20;4.32;;;-0.10;1.00;;;1.35;77.23;98310.53;5061014;27;122457;-65
2022/03/31 06:57:42;;;;;;;6.95;3.40;;;0.00;1.00;;;1.57;75.19;98310.06;5046478;27;122038;-65
2022/03/31 07:00:11;;;;;;;6.45;2.83;;;0.20;1.00;;;1.28;75.42;98310.84;5046806;27;129337;-66
2022/03/31 07:02:40;;;;;;;5.55;3.00;;;0.10;1.00;;;1.18;77.42;98308.25;5029739;27;128370;-65
2022/03/31 07:05:10;;;;;;;4.57;2.30;;;0.10;1.00;;;2.08;74.16;98314.13;5064481;27;120366;-65
2022/03/31 07:07:39;;;;;;;5.00;2.85;;;0.60;1.00;;;2.46;72.42;98323.06;5044738;27;119714;-64
2022/03/31 07:10:08;;;;;;;12.55;7.90;;;0.70;1.00;;;2.01;73.97;98322.50;5029197;27;129268;-66
2022/03/31 07:12:39;;;;;;;26.75;14.38;;;0.50;1.00;;;2.96;72.07;98325.38;5046166;27;128042;-65
2022/03/31 07:15:09;;;;;;;15.73;9.48;;;0.90;1.00;;;3.06;70.34;98319.06;5046176;27;118990;-65
2022/03/31 07:17:38;;;;;;;9.57;6.85;;;1.10;1.00;;;3.60;68.56;98320.34;5062048;27;119431;-63
2022/03/31 07:20:08;;;;;;;4.95;3.38;;;1.20;1.00;;;4.29;65.64;98326.91;5044505;27;130004;-64
2022/03/31 07:22:43;;;;;;;3.80;2.22;;;1.60;1.00;;;3.63;66.19;98327.03;5060931;27;129498;-66
2022/03/31 07:25:14;;;;;;;4.70;2.83;;;1.20;1.00;;;2.99;67.30;98319.41;5061145;27;120138;-66
2022/03/31 07:27:43;;;;;;;4.78;2.47;;;1.10;1.00;;;3.19;68.00;98323.66;5046342;27;118672;-68
2022/03/31 07:30:13;;;;;;;3.17;2.13;;;1.20;1.00;;;2.00;70.16;98326.25;5060985;27;129904;-64
2022/03/31 07:32:53;;;;;;;5.53;2.22;;;0.80;1.00;;;3.05;67.21;98322.81;5060574;27;130930;-66
2022/03/31 07:35:24;;;;;;;4.53;2.45;;;1.20;1.00;;;3.09;67.44;98328.41;5061035;27;120631;-64
2022/03/31 07:37:55;;;;;;;5.75;2.30;;;1.20;1.00;;;2.48;67.82;98326.25;5061414;27;120231;-64
2022/03/31 07:40:27;;;;;;;4.50;2.40;;;1.10;1.00;;;2.51;69.42;98325.66;5062710;27;130313;-64
2022/03/31 07:42:56;;;;;;;4.70;2.20;;;1.20;1.00;;;3.06;68.05;98335.13;5059064;27;129276;-66
2022/03/31 07:45:26;;;;;;;5.15;2.45;;;1.40;1.00;;;2.69;67.55;98331.34;5044717;27;121820;-65
2022/03/31 07:47:54;;;;;;;3.45;2.00;;;1.30;1.00;;;2.38;67.57;98331.72;5061051;27;122489;-64
2022/03/31 07:50:23;;;;;;;6.25;3.78;;;1.10;1.00;;;2.95;66.52;98339.06;5059850;27;130488;-64
2022/03/31 07:52:52;;;;;;;5.47;2.40;;;1.50;1.00;;;2.37;67.63;98345.38;5060630;27;130451;-65
2022/03/31 07:55:20;;;;;;;4.05;2.22;;;1.30;1.00;;;2.61;66.27;98340.03;5060664;27;119924;-65
2022/03/31 07:57:52;;;;;;;4.45;2.05;;;1.30;1.00;;;2.49;66.14;98343.91;5045536;27;119141;-64
2022/03/31 08:00:22;;;;;;;7.18;4.00;;;1.20;1.00;;;2.45;66.61;98348.25;5060488;27;130124;-65
2022/03/31 08:02:52;;;;;;;4.97;2.33;;;1.30;1.00;;;2.42;66.91;98332.75;5060700;27;129534;-63
2022/03/31 08:05:23;;;;;;;3.80;2.00;;;1.10;1.00;;;2.07;66.79;98333.94;5060545;27;119097;-65
2022/03/31 08:07:53;;;;;;;4.18;2.38;;;1.10;1.00;;;3.13;65.95;98335.56;5070274;27;119836;-65
2022/03/31 08:10:23;;;;;;;4.00;2.05;;;1.60;1.00;;;3.26;63.98;98349.31;5047095;27;128736;-66
2022/03/31 08:12:53;;;;;;;4.85;2.13;;;1.80;1.00;;;3.48;64.04;98341.47;5080783;27;129600;-65
2022/03/31 08:15:23;;;;;;;8.55;4.43;;;2.00;1.00;;;3.65;63.05;98343.63;5080845;27;120946;-66
2022/03/31 08:17:52;;;;;;;4.32;2.53;;;2.20;1.00;;;3.22;63.06;98346.41;5081764;27;119615;-65
2022/03/31 08:20:21;;;;;;;9.68;4.38;;;2.00;1.00;;;3.15;66.56;98343.34;5062155;27;130563;-65
2022/03/31 08:22:49;;;;;;;5.50;3.10;;;1.80;1.00;;;3.72;65.23;98345.91;5080260;27;130933;-64
2022/03/31 08:25:18;;;;;;;4.65;2.65;;;2.00;1.00;;;2.81;65.72;98350.47;5080738;27;119949;-64
2022/03/31 08:27:48;;;;;;;4.85;2.80;;;1.60;1.00;;;2.55;66.75;98352.66;5080846;27;119212;-63
2022/03/31 08:30:21;;;;;;;4.63;2.42;;;1.50;1.00;;;2.32;68.87;98348.91;5065142;27;129469;-63
2022/03/31 08:32:50;;;;;;;7.28;2.70;;;1.20;1.00;;;2.10;69.91;98352.91;5064986;27;128910;-62
2022/03/31 08:35:18;;;;;;;5.65;3.20;;;1.10;1.00;;;2.09;70.68;98348.63;5064139;27;121030;-63
2022/03/31 08:37:47;;;;;;;5.53;2.92;;;1.20;1.00;;;1.41;72.48;98346.84;5065027;27;120743;-62
2022/03/31 08:40:16;;;;;;;6.15;2.60;;;1.00;1.00;;;1.80;71.38;98349.44;5080145;27;129821;-65
2022/03/31 08:42:44;;;;;;;4.07;2.70;;;1.10;1.00;;;1.19;72.18;98350.72;5079909;27;129848;-65
2022/03/31 08:45:18;;;;;;;5.30;2.70;;;0.70;1.00;;;0.96;73.60;98357.56;5080439;27;119887;-63
2022/03/31 08:47:48;;;;;;;6.82;3.03;;;0.60;1.00;;;0.91;74.77;98362.94;5065023;27;119107;-63
2022/03/31 08:50:19;;;;;;;6.72;2.40;;;0.60;1.00;;;1.21;73.59;98363.81;5080207;27;130423;-65
2022/03/31 08:52:47;;;;;;;4.40;2.47;;;0.70;1.00;;;1.03;74.19;98368.75;5080388;27;129328;-63
2022/03/31 08:55:19;;;;;;;8.05;3.58;;;0.70;1.00;;;0.77;74.67;98370.75;5065007;27;119935;-63
2022/03/31 08:57:50;;;;;;;12.48;7.75;;;0.60;1.00;;;0.92;74.52;98364.53;5080544;27;120108;-64
2022/03/31 09:00:22;;;;;;;8.77;6.13;;;0.70;1.00;;;1.65;73.09;98367.50;5078272;27;129779;-63
2022/03/31 09:03:00;;;;;;;6.53;3.83;;;1.10;1.00;;;3.10;69.30;98373.69;5064424;27;128612;-63
2022/03/31 09:05:36;;;;;;;3.75;2.42;;;1.90;1.00;;;3.92;64.63;98372.41;5080368;27;120092;-64
2022/03/31 09:08:09;;;;;;;4.15;2.17;;;2.30;1.00;;;4.35;61.86;98367.88;5080075;27;119392;-63
2022/03/31 09:10:42;;;;;;;3.97;2.22;;;2.60;1.00;;;4.83;58.97;98362.09;5079552;27;130426;-62
2022/03/31 09:13:21;;;;;;;5.35;2.40;;;3.00;1.00;;;5.03;58.54;98361.66;5079678;27;129711;-62
2022/03/31 09:15:52;;;;;;;3.72;2.00;;;3.20;1.00;;;4.24;59.68;98362.72;5064877;27;119061;-62
2022/03/31 09:18:23;;;;;;;4.93;2.92;;;2.80;1.00;;;3.99;63.51;98365.84;5082188;27;119817;-62
2022/03/31 09:20:56;;;;;;;4.22;2.17;;;2.30;1.00;;;3.18;65.26;98364.97;5083588;27;105008;-64
2022/03/31 09:23:27;;;;;;;6.78;4.57;;;2.00;1.00;;;2.63;67.59;98356.59;5064482;27;129647;-61
2022/03/31 09:26:03;;;;;;;8.57;5.95;;;1.70;1.00;;;2.46;67.68;98357.88;5063481;27;121656;-63
2022/03/31 09:28:32;;;;;;;7.75;4.25;;;1.60;1.00;;;2.49;67.36;98359.16;5079856;27;121694;-63
2022/03/31 09:31:02;;;;;;;3.67;2.50;;;1.60;1.00;;;2.80;67.35;98354.22;5064304;27;128981;-63
2022/03/31 09:33:34;;;;;;;6.00;2.55;;;1.80;1.00;;;2.01;68.47;98359.97;5061163;27;129842;-63
2022/03/31 09:36:07;;;;;;;3.67;2.25;;;1.50;1.00;;;1.75;70.39;98362.09;5041033;27;119922;-64
2022/03/31 09:38:38;;;;;;;4.15;2.40;;;1.20;1.00;;;1.42;71.76;98354.56;5059353;27;119940;-62
2022/03/31 09:41:18;;;;;;;8.25;3.72;;;1.10;1.00;;;1.33;71.66;98348.22;5058819;27;129995;-61
2022/03/31 09:43:48;;;;;;;4.15;2.20;;;1.10;1.00;;;1.50;69.80;98350.50;5059289;27;130674;-61
2022/03/31 09:46:26;;;;;;;4.50;2.10;;;1.20;1.00;;;1.85;68.94;98350.47;5044389;27;118652;-61
2022/03/31 09:48:57;;;;;;;4.90;2.30;;;1.40;1.00;;;2.29;67.13;98342.28;5044101;27;118667;-62
2022/03/31 09:51:27;;;;;;;3.83;2.10;;;1.70;1.00;;;3.33;64.75;98344.38;5057619;27;129823;-62
2022/03/31 09:53:56;;;;;;;3.33;1.92;;;2.30;1.00;;;3.65;61.05;98345.50;5058757;27;129588;-63
2022/03/31 09:56:25;;;;;;;6.00;2.17;;;2.60;1.00;;;3.77;60.28;98348.50;5059168;27;119642;-63
2022/03/31 09:58:55;;;;;;;8.50;2.10;;;2.60;1.00;;;4.07;60.20;98349.06;5059061;27;119870;-63
2022/03/31 10:01:24;;;;;;;5.38;2.20;;;2.70;1.00;;;3.86;60.58;98345.94;5043800;27;129022;-62
2022/03/31 10:03:54;;;;;;;7.32;3.42;;;2.50;1.00;;;3.73;59.88;98339.47;5043604;27;129387;-63
2022/03/31 10:06:24;;;;;;;5.38;2.35;;;2.50;1.00;;;3.33;61.55;98339.03;5058813;27;120152;-62
2022/03/31 10:08:56;;;;;;;6.47;2.20;;;2.50;1.00;;;3.01;62.27;98337.91;5059185;27;119467;-61
2022/03/31 10:11:28;;;;;;;3.17;1.73;;;2.30;1.00;;;3.56;61.35;98338.09;5058043;27;130459;-63
2022/03/31 10:14:09;;;;;;;4.40;2.80;;;2.50;1.00;;;3.78;60.58;98334.00;5072880;27;130049;-63
2022/03/31 10:16:47;;;;;;;15.27;9.52;;;2.80;1.00;;;3.85;60.10;98339.78;5078675;27;122016;-62
2022/03/31 10:19:28;;;;;;;5.22;2.63;;;2.70;1.00;;;3.19;62.48;98345.09;5067209;27;122131;-64
2022/03/31 10:22:02;;;;;;;4.55;2.25;;;2.40;1.00;;;3.22;61.77;98344.53;5082410;27;129767;-63
2022/03/31 10:24:44;;;;;;;3.92;2.40;;;2.40;1.00;;;3.69;61.67;98341.91;5082335;27;130157;-62
2022/03/31 10:27:28;;;;;;;8.13;2.38;;;2.60;1.00;;;3.70;58.68;98337.38;5082471;27;120041;-63
2022/03/31 10:30:09;;;;;;;3.65;2.00;;;2.70;1.00;;;4.48;58.04;98337.53;5067369;27;119312;-63
2022/03/31 10:32:38;;;;;;;3.80;1.88;;;3.10;1.00;;;5.07;57.11;98334.16;5082141;27;129925;-61
2022/03/31 10:35:08;;;;;;;7.18;2.05;;;3.60;1.00;;;5.03;56.85;98333.97;5067712;27;129554;-63